Time;durP1;ratioP1;P1;durP2;ratioP2;P2;SDS_P1;SDS_P2;PMS_P1;PMS_P2;Temp;Humidity;BMP_temperature;BMP_pressure;BME280_temperature;BME280_humidity;BME280_pressure;Samples;Min_cycle;Max_cycle;Signal;HPM_P1;HPM_P2
2022/09/09 00:01:10;;;;;;;2.25;0.63;;;;;;;;;;4997374;28;20037;-83
2022/09/09 00:03:56;;;;;;;1.42;0.40;;;;;;;;;;4998054;28;20080;-84
2022/09/09 00:06:25;;;;;;;1.85;0.63;;;;;;;;;;4997727;28;20218;-84
2022/09/09 00:08:55;;;;;;;0.73;0.47;;;;;;;;;;4997618;28;20047;-85
2022/09/09 00:11:50;;;;;;;2.00;0.45;;;;;;;;;;4997118;28;20064;-84
2022/09/09 00:14:48;;;;;;;1.35;0.68;;;;;;;;;;4984070;28;20034;-84
2022/09/09 00:17:33;;;;;;;3.13;0.80;;;;;;;;;;4999478;28;20504;-84
2022/09/09 00:20:12;;;;;;;4.25;0.63;;;;;;;;;;5022112;28;20075;-83
2022/09/09 00:22:38;;;;;;;2.05;0.50;;;;;;;;;;4989683;28;20091;-84
2022/09/09 00:25:23;;;;;;;2.05;0.40;;;;;;;;;;5017187;28;20029;-82
2022/09/09 00:27:49;;;;;;;2.45;0.30;;;;;;;;;;5001473;28;20118;-84
2022/09/09 00:30:22;;;;;;;1.40;0.30;;;;;;;;;;5016718;28;20033;-84
2022/09/09 00:32:59;;;;;;;2.13;0.40;;;;;;;;;;5017004;28;20041;-84
2022/09/09 00:35:31;;;;;;;1.00;0.30;;;;;;;;;;5017098;28;20422;-84
2022/09/09 00:38:00;;;;;;;1.17;0.40;;;;;;;;;;5001197;28;20037;-84
2022/09/09 00:40:33;;;;;;;1.15;0.30;;;;;;;;;;5017218;28;20075;-84
2022/09/09 00:43:17;;;;;;;1.23;0.30;;;;;;;;;;5016799;28;20132;-83
2022/09/09 00:46:04;;;;;;;1.35;0.30;;;;;;;;;;5016496;28;20068;-83
2022/09/09 00:48:54;;;;;;;1.13;0.17;;;;;;;;;;5016753;28;20045;-84
2022/09/09 00:51:28;;;;;;;1.08;0.38;;;;;;;;;;5016569;28;20036;-83
2022/09/09 00:54:18;;;;;;;2.47;0.82;;;;;;;;;;5016712;28;20120;-84
2022/09/09 00:57:14;;;;;;;1.77;0.38;;;;;;;;;;5020230;28;20029;-84
2022/09/09 00:59:45;;;;;;;1.48;0.40;;;;;;;;;;5017666;28;20046;-84
2022/09/09 01:02:40;;;;;;;2.38;0.30;;;;;;;;;;5019866;28;20029;-84
2022/09/09 01:05:20;;;;;;;2.30;0.32;;;;;;;;;;5016779;28;20499;-83
2022/09/09 01:07:47;;;;;;;2.38;0.40;;;;;;;;;;5020819;28;20116;-83
2022/09/09 01:10:41;;;;;;;2.38;0.30;;;;;;;;;;5020065;28;21656;-84
2022/09/09 01:13:13;;;;;;;2.50;0.50;;;;;;;;;;5035672;28;20111;-84
2022/09/09 01:15:40;;;;;;;0.80;0.20;;;;;;;;;;4987702;28;20499;-84
2022/09/09 01:18:12;;;;;;;2.08;0.40;;;;;;;;;;5000362;28;20034;-84
2022/09/09 01:20:57;;;;;;;;;;;;;;;;;;4984596;28;20507;-83
2022/09/09 01:23:59;;;;;;;1.95;0.50;;;;;;;;;;4999779;28;19909;-83
2022/09/09 01:26:28;;;;;;;1.10;0.20;;;;;;;;;;4984129;28;20033;-84
2022/09/09 01:28:54;;;;;;;0.95;0.47;;;;;;;;;;4983700;28;20548;-84
2022/09/09 01:31:37;;;;;;;1.63;0.30;;;;;;;;;;4967690;28;20189;-84
2022/09/09 01:34:09;;;;;;;2.75;0.35;;;;;;;;;;4984950;28;20038;-83
2022/09/09 01:36:42;;;;;;;1.98;0.50;;;;;;;;;;4983877;28;20030;-83
2022/09/09 01:39:08;;;;;;;1.80;0.30;;;;;;;;;;4968249;28;20033;-84
2022/09/09 01:41:34;;;;;;;2.08;0.30;;;;;;;;;;4967225;28;20033;-83
2022/09/09 01:44:00;;;;;;;1.40;0.30;;;;;;;;;;4967326;28;20052;-83
2022/09/09 01:46:25;;;;;;;1.90;0.60;;;;;;;;;;4967305;28;20033;-83
2022/09/09 01:48:51;;;;;;;2.15;0.40;;;;;;;;;;4967850;28;20067;-84
2022/09/09 01:51:17;;;;;;;1.73;0.40;;;;;;;;;;4967332;28;20040;-83
2022/09/09 01:53:44;;;;;;;2.45;0.43;;;;;;;;;;4983244;28;20079;-84
2022/09/09 01:56:24;;;;;;;0.77;0.20;;;;;;;;;;4967214;28;20029;-83
2022/09/09 01:59:11;;;;;;;2.60;0.40;;;;;;;;;;4999607;28;20038;-84
2022/09/09 02:01:41;;;;;;;1.85;0.38;;;;;;;;;;4999361;28;20037;-83
2022/09/09 02:04:15;;;;;;;1.35;0.30;;;;;;;;;;4983001;28;20037;-83
2022/09/09 02:06:43;;;;;;;1.50;0.35;;;;;;;;;;4983464;28;20104;-83
2022/09/09 02:09:10;;;;;;;1.05;0.30;;;;;;;;;;4982765;28;20107;-84
2022/09/09 02:11:36;;;;;;;1.67;0.20;;;;;;;;;;4982645;28;20079;-84
2022/09/09 02:14:10;;;;;;;1.85;0.20;;;;;;;;;;4983462;28;20049;-83
2022/09/09 02:16:39;;;;;;;1.10;0.30;;;;;;;;;;4983144;28;20030;-83
2022/09/09 02:19:13;;;;;;;1.80;0.40;;;;;;;;;;5025332;28;20112;-84
2022/09/09 02:21:40;;;;;;;1.25;0.30;;;;;;;;;;5031575;28;20124;-83
2022/09/09 02:24:09;;;;;;;3.05;0.60;;;;;;;;;;5015061;28;20120;-83
2022/09/09 02:26:40;;;;;;;1.52;0.30;;;;;;;;;;4999435;28;20041;-83
2022/09/09 02:29:08;;;;;;;3.00;0.60;;;;;;;;;;4967295;28;20030;-83
2022/09/09 02:31:35;;;;;;;1.98;0.30;;;;;;;;;;4983020;28;20042;-83
2022/09/09 02:34:01;;;;;;;2.53;0.40;;;;;;;;;;5015067;28;20409;-83
2022/09/09 02:36:30;;;;;;;1.60;0.40;;;;;;;;;;4982599;28;20129;-82
2022/09/09 02:38:55;;;;;;;2.47;0.50;;;;;;;;;;4982508;28;20033;-83
2022/09/09 02:41:24;;;;;;;1.17;0.32;;;;;;;;;;4981949;28;20651;-83
2022/09/09 02:43:50;;;;;;;1.65;0.30;;;;;;;;;;4982880;28;20029;-83
2022/09/09 02:46:36;;;;;;;1.17;0.30;;;;;;;;;;5014723;28;20034;-83
2022/09/09 02:49:15;;;;;;;1.67;0.40;;;;;;;;;;4982632;28;20052;-83
2022/09/09 02:51:49;;;;;;;1.85;0.20;;;;;;;;;;4981958;28;20037;-83
2022/09/09 02:54:31;;;;;;;1.45;0.45;;;;;;;;;;4982605;28;20133;-83
2022/09/09 02:57:07;;;;;;;1.00;0.30;;;;;;;;;;4982905;28;20043;-84
2022/09/09 02:59:33;;;;;;;1.05;0.30;;;;;;;;;;5032404;28;20080;-83
2022/09/09 03:01:59;;;;;;;0.93;0.20;;;;;;;;;;4982001;28;20040;-83
2022/09/09 03:04:25;;;;;;;0.95;0.30;;;;;;;;;;5017340;28;20033;-84
2022/09/09 03:06:50;;;;;;;1.40;0.52;;;;;;;;;;5017802;28;20037;-83
2022/09/09 03:09:16;;;;;;;1.48;0.40;;;;;;;;;;5001058;28;20033;-84
2022/09/09 03:11:41;;;;;;;1.92;0.68;;;;;;;;;;5017686;28;20102;-84
2022/09/09 03:14:08;;;;;;;0.90;0.20;;;;;;;;;;5017532;28;20074;-83
2022/09/09 03:16:34;;;;;;;2.15;0.30;;;;;;;;;;5001107;28;20039;-83
2022/09/09 03:19:00;;;;;;;1.65;0.30;;;;;;;;;;5000876;28;20021;-83
2022/09/09 03:21:26;;;;;;;1.45;0.40;;;;;;;;;;5001434;28;20041;-83
2022/09/09 03:23:54;;;;;;;2.72;0.60;;;;;;;;;;5001139;28;20091;-82
2022/09/09 03:26:21;;;;;;;1.92;0.40;;;;;;;;;;5001537;28;20033;-83
2022/09/09 03:28:47;;;;;;;1.65;0.40;;;;;;;;;;5001278;28;20112;-83
2022/09/09 03:31:14;;;;;;;2.13;0.43;;;;;;;;;;5001102;28;20047;-84
2022/09/09 03:33:41;;;;;;;1.13;0.20;;;;;;;;;;5017361;28;20110;-83
2022/09/09 03:36:07;;;;;;;1.08;0.20;;;;;;;;;;5000721;28;20033;-83
2022/09/09 03:38:34;;;;;;;2.67;0.98;;;;;;;;;;5016745;28;20029;-83
2022/09/09 03:41:00;;;;;;;2.38;0.65;;;;;;;;;;5001171;28;20052;-83
2022/09/09 03:43:25;;;;;;;4.13;0.50;;;;;;;;;;5001132;28;20033;-83
2022/09/09 03:45:51;;;;;;;0.98;0.30;;;;;;;;;;5000823;28;20040;-83
2022/09/09 03:48:17;;;;;;;1.50;0.30;;;;;;;;;;5017169;28;20037;-83
2022/09/09 03:50:52;;;;;;;2.88;0.30;;;;;;;;;;5000903;28;20033;-83
2022/09/09 03:53:19;;;;;;;1.63;0.40;;;;;;;;;;5000898;28;20037;-83
2022/09/09 03:55:54;;;;;;;2.08;0.40;;;;;;;;;;5001214;28;20037;-83
2022/09/09 03:58:23;;;;;;;3.92;1.00;;;;;;;;;;5001545;28;20064;-83
2022/09/09 04:01:18;;;;;;;1.85;0.50;;;;;;;;;;5017881;28;20124;-83
2022/09/09 04:03:44;;;;;;;2.92;0.40;;;;;;;;;;5012105;28;20040;-83
2022/09/09 04:06:11;;;;;;;2.97;0.50;;;;;;;;;;5016876;28;20068;-83
2022/09/09 04:08:39;;;;;;;1.85;0.45;;;;;;;;;;5016699;28;20041;-83
2022/09/09 04:11:06;;;;;;;1.90;0.40;;;;;;;;;;5016761;28;20119;-84
2022/09/09 04:13:34;;;;;;;1.27;0.32;;;;;;;;;;5016713;28;20048;-83
2022/09/09 04:16:00;;;;;;;2.47;0.60;;;;;;;;;;5017387;28;20033;-83
2022/09/09 04:18:25;;;;;;;1.70;0.30;;;;;;;;;;5016753;28;20518;-83
2022/09/09 04:20:52;;;;;;;3.90;0.60;;;;;;;;;;5000752;28;20117;-83
2022/09/09 04:23:20;;;;;;;1.58;0.57;;;;;;;;;;5000225;28;20110;-83
2022/09/09 04:25:49;;;;;;;1.67;0.30;;;;;;;;;;5017410;28;20033;-83
2022/09/09 04:28:15;;;;;;;1.77;0.40;;;;;;;;;;5000331;28;20040;-83
2022/09/09 04:30:41;;;;;;;2.05;0.50;;;;;;;;;;5003532;28;20078;-83
2022/09/09 04:33:07;;;;;;;3.80;0.45;;;;;;;;;;5004177;28;20051;-83
2022/09/09 04:35:32;;;;;;;1.75;0.70;;;;;;;;;;5004103;28;20024;-83
2022/09/09 04:37:58;;;;;;;2.85;0.73;;;;;;;;;;5003679;28;20419;-83
2022/09/09 04:40:24;;;;;;;2.08;0.60;;;;;;;;;;5004199;28;20387;-83
2022/09/09 04:42:50;;;;;;;3.50;1.00;;;;;;;;;;5004481;28;20049;-83
2022/09/09 04:45:15;;;;;;;3.10;0.68;;;;;;;;;;5003944;28;20033;-83
2022/09/09 04:47:41;;;;;;;3.65;0.90;;;;;;;;;;5004181;28;20048;-83
2022/09/09 04:50:07;;;;;;;2.42;0.68;;;;;;;;;;5003894;28;20542;-84
2022/09/09 04:52:35;;;;;;;2.67;0.73;;;;;;;;;;5003393;28;20040;-83
2022/09/09 04:55:02;;;;;;;3.13;0.60;;;;;;;;;;5020063;28;20116;-83
2022/09/09 04:57:31;;;;;;;2.15;0.35;;;;;;;;;;5020485;28;20104;-83
2022/09/09 04:59:57;;;;;;;1.73;0.47;;;;;;;;;;5020698;28;20040;-84
2022/09/09 05:02:23;;;;;;;2.25;0.43;;;;;;;;;;5020519;28;20037;-84
2022/09/09 05:04:49;;;;;;;1.75;0.45;;;;;;;;;;5019883;28;20078;-84
2022/09/09 05:07:15;;;;;;;2.97;0.88;;;;;;;;;;5019890;28;20051;-83
2022/09/09 05:09:40;;;;;;;1.23;0.40;;;;;;;;;;5019791;28;20032;-84
2022/09/09 05:12:06;;;;;;;2.13;0.70;;;;;;;;;;5019804;28;20072;-84
2022/09/09 05:14:31;;;;;;;1.63;0.40;;;;;;;;;;5019821;28;20124;-83
2022/09/09 05:16:58;;;;;;;1.60;0.50;;;;;;;;;;5003185;28;20120;-84
2022/09/09 05:19:27;;;;;;;1.70;0.63;;;;;;;;;;5001084;28;20037;-95
2022/09/09 05:21:55;;;;;;;5.25;0.93;;;;;;;;;;4985532;28;20033;-90
2022/09/09 05:24:23;;;;;;;4.07;0.95;;;;;;;;;;4985295;28;20036;-92
2022/09/09 05:26:48;;;;;;;4.90;1.25;;;;;;;;;;5016299;28;20129;-90
2022/09/09 05:29:19;;;;;;;3.15;0.90;;;;;;;;;;5001665;28;20060;-92
2022/09/09 05:31:45;;;;;;;10.23;1.92;;;;;;;;;;5017590;28;20072;-85
2022/09/09 05:34:14;;;;;;;8.48;1.60;;;;;;;;;;5000833;28;20040;-88
2022/09/09 05:36:40;;;;;;;9.88;1.98;;;;;;;;;;5000876;28;20047;-89
2022/09/09 05:39:07;;;;;;;15.32;2.80;;;;;;;;;;5002606;28;20064;-89
2022/09/09 05:41:36;;;;;;;6.45;1.50;;;;;;;;;;5000163;28;20042;-89
2022/09/09 05:44:13;;;;;;;10.00;2.15;;;;;;;;;;5017676;28;20373;-91
2022/09/09 05:46:40;;;;;;;12.98;1.85;;;;;;;;;;5001227;28;20041;-89
2022/09/09 05:49:08;;;;;;;7.07;2.08;;;;;;;;;;4984505;28;20068;-89
2022/09/09 05:51:52;;;;;;;8.45;1.73;;;;;;;;;;5016933;28;20064;-90
2022/09/09 05:54:19;;;;;;;6.70;1.25;;;;;;;;;;5017325;28;20037;-89
2022/09/09 05:56:50;;;;;;;10.60;1.70;;;;;;;;;;4984714;28;20030;-88
2022/09/09 05:59:19;;;;;;;11.90;2.17;;;;;;;;;;5001399;28;20080;-88
2022/09/09 06:01:45;;;;;;;8.93;1.77;;;;;;;;;;5016936;28;20571;-88
2022/09/09 06:04:15;;;;;;;9.10;1.67;;;;;;;;;;5016790;28;20033;-89
2022/09/09 06:06:43;;;;;;;4.82;1.08;;;;;;;;;;5000385;28;20033;-88
2022/09/09 06:09:10;;;;;;;6.45;1.35;;;;;;;;;;5000707;28;20038;-88
2022/09/09 06:11:38;;;;;;;7.50;1.23;;;;;;;;;;4984179;28;20049;-92
2022/09/09 06:14:46;;;;;;;5.80;1.08;;;;;;;;;;5017315;28;20463;-92
2022/09/09 06:17:14;;;;;;;4.28;1.10;;;;;;;;;;4998769;28;20489;-92
2022/09/09 06:19:43;;;;;;;7.70;1.15;;;;;;;;;;4999891;28;20033;-89
2022/09/09 06:22:12;;;;;;;8.98;1.50;;;;;;;;;;5000636;28;20420;-89
2022/09/09 06:24:39;;;;;;;5.85;1.40;;;;;;;;;;4984376;28;20026;-89
2022/09/09 06:27:06;;;;;;;10.05;1.35;;;;;;;;;;5000504;28;20044;-92
2022/09/09 06:29:35;;;;;;;10.40;1.38;;;;;;;;;;5033196;28;20067;-94
2022/09/09 06:32:03;;;;;;;5.63;1.00;;;;;;;;;;5000299;28;20521;-91
2022/09/09 06:34:32;;;;;;;4.20;1.10;;;;;;;;;;4999751;28;20101;-91
2022/09/09 06:36:59;;;;;;;9.82;1.50;;;;;;;;;;5016687;28;20415;-91
2022/09/09 06:39:28;;;;;;;6.07;0.90;;;;;;;;;;5000020;28;20411;-91
2022/09/09 06:41:58;;;;;;;7.18;1.10;;;;;;;;;;5016396;28;20042;-91
2022/09/09 06:44:27;;;;;;;8.13;1.30;;;;;;;;;;4999802;28;20045;-92
2022/09/09 06:46:57;;;;;;;5.40;1.60;;;;;;;;;;4983983;28;20176;-92
2022/09/09 06:49:27;;;;;;;7.28;1.33;;;;;;;;;;5016541;28;20037;-94
2022/09/09 06:52:08;;;;;;;5.93;1.48;;;;;;;;;;5018153;28;20456;-92
2022/09/09 06:54:37;;;;;;;7.45;1.90;;;;;;;;;;5000032;28;20443;-93
2022/09/09 06:57:43;;;;;;;3.45;1.10;;;;;;;;;;5001072;28;20471;-93
2022/09/09 07:00:15;;;;;;;5.90;1.40;;;;;;;;;;5032307;28;20045;-93
2022/09/09 07:02:42;;;;;;;6.95;1.55;;;;;;;;;;5004663;23;20041;-92
2022/09/09 07:08:54;;;;;;;10.27;2.00;;;;;;;;;;5033947;28;20048;-92
2022/09/09 07:12:12;;;;;;;6.47;1.60;;;;;;;;;;4999813;28;20420;-94
2022/09/09 07:15:48;;;;;;;14.57;3.30;;;;;;;;;;4976771;28;20046;-94
2022/09/09 07:19:36;;;;;;;8.50;1.50;;;;;;;;;;4952393;28;20053;-94
2022/09/09 07:22:47;;;;;;;10.88;1.83;;;;;;;;;;4955454;28;20066;-95
2022/09/09 07:26:10;;;;;;;10.43;2.10;;;;;;;;;;4953158;29;20043;-94
2022/09/09 07:33:13;;;;;;;8.75;2.30;;;;;;;;;;4896358;29;20063;-92
2022/09/09 07:37:13;;;;;;;8.52;2.72;;;;;;;;;;4865154;29;20070;-92
2022/09/09 07:40:28;;;;;;;13.02;3.35;;;;;;;;;;4852253;29;20042;-92
2022/09/09 07:43:33;;;;;;;10.10;3.20;;;;;;;;;;4839833;29;20456;-92
2022/09/09 07:46:11;;;;;;;7.03;1.90;;;;;;;;;;4859740;29;20548;-91
2022/09/09 07:48:53;;;;;;;7.05;2.38;;;;;;;;;;4899544;29;20048;-89
2022/09/09 07:51:29;;;;;;;6.10;2.50;;;;;;;;;;4899080;29;20032;-91
2022/09/09 07:54:35;;;;;;;7.68;2.00;;;;;;;;;;4924620;28;20173;-93
2022/09/09 07:57:16;;;;;;;8.50;2.55;;;;;;;;;;4956136;28;20137;-92
2022/09/09 08:01:24;;;;;;;6.88;1.70;;;;;;;;;;4940375;29;20506;-93
2022/09/09 08:04:07;;;;;;;8.00;3.28;;;;;;;;;;4931276;28;20043;-92
2022/09/09 08:06:46;;;;;;;14.75;7.50;;;;;;;;;;4979294;28;20098;-91
2022/09/09 08:09:46;;;;;;;23.35;12.30;;;;;;;;;;4992278;28;20556;-92
2022/09/09 08:12:33;;;;;;;36.05;22.27;;;;;;;;;;4983989;28;20033;-91
2022/09/09 08:15:01;;;;;;;32.15;17.88;;;;;;;;;;4982787;28;20129;-91
2022/09/09 08:17:31;;;;;;;29.85;16.00;;;;;;;;;;4966257;28;20510;-91
2022/09/09 08:20:03;;;;;;;23.98;14.50;;;;;;;;;;4982293;28;20046;-91
2022/09/09 08:22:30;;;;;;;23.85;15.13;;;;;;;;;;4984104;28;20080;-90
2022/09/09 08:25:00;;;;;;;24.35;14.73;;;;;;;;;;4986361;28;20585;-89
2022/09/09 08:27:29;;;;;;;19.40;11.43;;;;;;;;;;4986801;28;20041;-89
2022/09/09 08:29:56;;;;;;;21.95;13.88;;;;;;;;;;5018870;28;20037;-90
2022/09/09 08:32:27;;;;;;;21.25;12.68;;;;;;;;;;4986940;28;20133;-92
2022/09/09 08:34:53;;;;;;;22.42;12.65;;;;;;;;;;5002194;28;20044;-90
2022/09/09 08:37:20;;;;;;;15.38;9.35;;;;;;;;;;5002682;28;20033;-90
2022/09/09 08:39:50;;;;;;;12.95;7.72;;;;;;;;;;5002390;28;20492;-93
2022/09/09 08:42:26;;;;;;;14.07;7.80;;;;;;;;;;4986518;28;20088;-93
2022/09/09 08:45:32;;;;;;;17.20;8.27;;;;;;;;;;5018492;28;20053;-93
2022/09/09 08:48:16;;;;;;;12.10;7.35;;;;;;;;;;5019023;28;20037;-91
2022/09/09 08:50:42;;;;;;;11.98;6.80;;;;;;;;;;5001972;28;20021;-81
2022/09/09 08:53:16;;;;;;;13.75;5.90;;;;;;;;;;4985445;28;20032;-87
2022/09/09 08:55:45;;;;;;;6.53;4.28;;;;;;;;;;4986691;28;20033;-86
2022/09/09 08:58:20;;;;;;;12.27;5.05;;;;;;;;;;5001380;28;20033;-86
2022/09/09 09:01:19;;;;;;;14.68;4.97;;;;;;;;;;4985304;28;20021;-88
2022/09/09 09:04:07;;;;;;;9.43;3.75;;;;;;;;;;5017824;28;20033;-88
2022/09/09 09:07:07;;;;;;;10.10;3.22;;;;;;;;;;5017806;28;20128;-88
2022/09/09 09:10:09;;;;;;;8.23;3.55;;;;;;;;;;5003856;28;20399;-87
2022/09/09 09:12:41;;;;;;;6.10;2.03;;;;;;;;;;4988813;28;20068;-87
2022/09/09 09:15:26;;;;;;;5.57;2.30;;;;;;;;;;5001046;28;20088;-86
2022/09/09 09:17:53;;;;;;;6.25;1.80;;;;;;;;;;4984614;28;20519;-87
2022/09/09 09:20:43;;;;;;;6.85;2.20;;;;;;;;;;4985007;28;20033;-86
2022/09/09 09:23:12;;;;;;;7.60;1.90;;;;;;;;;;4996418;28;20049;-89
2022/09/09 09:25:39;;;;;;;4.53;1.70;;;;;;;;;;5001216;28;20427;-85
2022/09/09 09:28:17;;;;;;;4.93;2.00;;;;;;;;;;4984034;28;20064;-84
2022/09/09 09:30:47;;;;;;;7.13;1.50;;;;;;;;;;5016631;28;20063;-85
2022/09/09 09:33:27;;;;;;;4.60;2.00;;;;;;;;;;4984777;28;20065;-84
2022/09/09 09:35:53;;;;;;;5.72;1.67;;;;;;;;;;5016887;28;20116;-87
2022/09/09 09:38:33;;;;;;;;;;;;;;;;;;;;;
2022/09/09 09:41:11;;;;;;;9.20;4.20;;;;;;;;;;5019468;28;20034;-86
2022/09/09 09:43:42;;;;;;;9.20;4.80;;;;;;;;;;4984543;28;20095;-87
2022/09/09 09:46:23;;;;;;;9.75;4.55;;;;;;;;;;4984582;28;20454;-87
2022/09/09 09:48:59;;;;;;;5.55;2.25;;;;;;;;;;4985238;28;20026;-87
2022/09/09 09:51:26;;;;;;;6.40;2.00;;;;;;;;;;5016371;28;20049;-86
2022/09/09 09:53:53;;;;;;;15.55;5.88;;;;;;;;;;4984359;28;20116;-87
2022/09/09 09:56:27;;;;;;;14.93;4.95;;;;;;;;;;4984542;28;20498;-88
2022/09/09 09:58:55;;;;;;;19.77;6.32;;;;;;;;;;4984757;28;20037;-88
2022/09/09 10:01:24;;;;;;;20.30;7.25;;;;;;;;;;4984207;28;20065;-91
2022/09/09 10:04:23;;;;;;;13.40;5.47;;;;;;;;;;5016943;28;20033;-89
2022/09/09 10:06:52;;;;;;;12.02;4.80;;;;;;;;;;5003706;28;20128;-89
2022/09/09 10:09:32;;;;;;;13.65;4.95;;;;;;;;;;4984456;28;20048;-88
2022/09/09 10:12:16;;;;;;;13.05;5.10;;;;;;;;;;5000892;28;20464;-88
2022/09/09 10:14:56;;;;;;;11.85;4.43;;;;;;;;;;5016702;28;20511;-88
2022/09/09 10:17:46;;;;;;;9.55;4.15;;;;;;;;;;5017053;28;20096;-89
2022/09/09 10:20:19;;;;;;;11.05;3.33;;;;;;;;;;5000894;28;20229;-89
2022/09/09 10:22:51;;;;;;;7.40;3.13;;;;;;;;;;5016579;28;20045;-89
2022/09/09 10:25:19;;;;;;;5.63;2.13;;;;;;;;;;4984282;28;20419;-89
2022/09/09 10:27:58;;;;;;;10.02;2.22;;;;;;;;;;5016088;28;20496;-88
2022/09/09 10:30:48;;;;;;;8.27;2.28;;;;;;;;;;5000799;28;20033;-88
2022/09/09 10:33:23;;;;;;;6.35;2.25;;;;;;;;;;5001550;28;20527;-88
2022/09/09 10:35:53;;;;;;;5.45;1.58;;;;;;;;;;5016021;28;20078;-88
2022/09/09 10:38:45;;;;;;;5.80;1.70;;;;;;;;;;5000134;28;20033;-89
2022/09/09 10:41:32;;;;;;;5.93;1.25;;;;;;;;;;5017212;28;20034;-89
2022/09/09 10:44:27;;;;;;;5.93;1.58;;;;;;;;;;5015773;28;20045;-88
2022/09/09 10:47:05;;;;;;;4.65;1.25;;;;;;;;;;5001877;28;20049;-91
2022/09/09 10:49:54;;;;;;;4.65;1.38;;;;;;;;;;4999580;28;20025;-91
2022/09/09 10:52:20;;;;;;;3.53;0.90;;;;;;;;;;5016571;28;20037;-91
2022/09/09 10:54:50;;;;;;;4.25;1.17;;;;;;;;;;5016214;28;20500;-91
2022/09/09 10:57:34;;;;;;;3.67;1.02;;;;;;;;;;5016159;28;20029;-90
2022/09/09 11:00:06;;;;;;;2.50;0.65;;;;;;;;;;4999430;28;20033;-88
2022/09/09 11:02:33;;;;;;;4.22;1.30;;;;;;;;;;4999220;28;20041;-89
2022/09/09 11:05:02;;;;;;;4.93;1.80;;;;;;;;;;4999015;28;20029;-91
2022/09/09 11:07:47;;;;;;;9.05;3.97;;;;;;;;;;5015227;28;20048;-90
2022/09/09 11:10:32;;;;;;;9.75;5.57;;;;;;;;;;4998335;28;20045;-88
2022/09/09 11:13:02;;;;;;;8.02;4.32;;;;;;;;;;4999639;28;20034;-91
2022/09/09 11:15:43;;;;;;;8.55;3.95;;;;;;;;;;4999257;28;20404;-89
2022/09/09 11:18:13;;;;;;;10.20;4.75;;;;;;;;;;4999154;28;20407;-90
2022/09/09 11:20:39;;;;;;;7.22;3.55;;;;;;;;;;5015583;28;20033;-91
2022/09/09 11:23:10;;;;;;;7.03;3.28;;;;;;;;;;4999407;28;20053;-91
2022/09/09 11:25:42;;;;;;;6.00;2.97;;;;;;;;;;5015420;28;20656;-91
2022/09/09 11:28:16;;;;;;;7.18;3.38;;;;;;;;;;4999436;28;20059;-90
2022/09/09 11:30:57;;;;;;;7.35;2.75;;;;;;;;;;5015559;28;20037;-90
2022/09/09 11:33:49;;;;;;;4.90;2.33;;;;;;;;;;5015520;28;20072;-91
2022/09/09 11:37:11;;;;;;;4.80;2.27;;;;;;;;;;4998971;28;20045;-90
2022/09/09 11:40:09;;;;;;;4.30;2.00;;;;;;;;;;4993670;28;20034;-91
2022/09/09 11:42:35;;;;;;;5.78;2.72;;;;;;;;;;4978368;28;20038;-89
2022/09/09 11:45:27;;;;;;;5.53;2.20;;;;;;;;;;4992216;28;20091;-88
2022/09/09 11:48:01;;;;;;;4.97;1.70;;;;;;;;;;4993180;28;20463;-90
2022/09/09 11:50:33;;;;;;;5.78;2.42;;;;;;;;;;4995089;28;20045;-89
2022/09/09 11:53:22;;;;;;;5.28;2.17;;;;;;;;;;4994824;28;20030;-91
2022/09/09 11:56:08;;;;;;;4.82;2.25;;;;;;;;;;4979559;28;20038;-91
2022/09/09 11:58:41;;;;;;;4.95;1.60;;;;;;;;;;4979500;28;20068;-89
2022/09/09 12:01:45;;;;;;;6.00;2.00;;;;;;;;;;4981952;28;20034;-90
2022/09/09 12:04:25;;;;;;;4.75;2.08;;;;;;;;;;4923075;29;20517;-89
2022/09/09 12:07:44;;;;;;;4.07;1.50;;;;;;;;;;4954728;29;20039;-89
2022/09/09 12:10:34;;;;;;;5.43;1.63;;;;;;;;;;4991241;28;20046;-89
2022/09/09 12:13:20;;;;;;;4.80;1.40;;;;;;;;;;4981689;28;20042;-90
2022/09/09 12:15:50;;;;;;;3.70;1.42;;;;;;;;;;4982865;28;20038;-91
2022/09/09 12:18:39;;;;;;;4.63;1.27;;;;;;;;;;4999003;28;20042;-90
2022/09/09 12:21:35;;;;;;;3.03;1.38;;;;;;;;;;4997727;28;20030;-90
2022/09/09 12:24:06;;;;;;;3.22;0.90;;;;;;;;;;4996550;28;20068;-89
2022/09/09 12:26:42;;;;;;;5.78;1.20;;;;;;;;;;4995823;28;20030;-91
2022/09/09 12:29:19;;;;;;;5.35;1.13;;;;;;;;;;5011735;28;20123;-90
2022/09/09 12:32:00;;;;;;;4.60;0.88;;;;;;;;;;5011668;28;20037;-90
2022/09/09 12:34:41;;;;;;;4.40;1.00;;;;;;;;;;4995817;28;20026;-90
2022/09/09 12:37:36;;;;;;;3.03;0.90;;;;;;;;;;4989763;28;20042;-91
2022/09/09 12:40:06;;;;;;;6.40;1.30;;;;;;;;;;5014913;28;20149;-90
2022/09/09 12:42:39;;;;;;;3.53;1.20;;;;;;;;;;4999312;28;20037;-91
2022/09/09 12:45:18;;;;;;;18.75;9.88;;;;;;;;;;5014779;28;20408;-91
2022/09/09 12:47:58;;;;;;;78.57;52.72;;;;;;;;;;4982709;28;20061;-91
2022/09/09 12:50:32;;;;;;;31.13;21.02;;;;;;;;;;5017003;28;20487;-91
2022/09/09 12:53:23;;;;;;;26.40;17.33;;;;;;;;;;5001887;28;20479;-91
2022/09/09 12:56:02;;;;;;;28.80;16.10;;;;;;;;;;5004160;28;20092;-91
2022/09/09 12:58:32;;;;;;;22.65;14.88;;;;;;;;;;5002863;28;20377;-91
2022/09/09 13:00:59;;;;;;;25.52;14.60;;;;;;;;;;5003307;28;20044;-91
2022/09/09 13:03:25;;;;;;;19.25;11.48;;;;;;;;;;4986232;28;20096;-91
2022/09/09 13:05:51;;;;;;;15.48;9.32;;;;;;;;;;5002208;28;20037;-92
2022/09/09 13:08:20;;;;;;;17.98;9.88;;;;;;;;;;5002057;28;20033;-91
2022/09/09 13:10:54;;;;;;;10.57;6.20;;;;;;;;;;5002720;28;20389;-91
2022/09/09 13:13:33;;;;;;;12.65;5.65;;;;;;;;;;5002310;28;20503;-89
2022/09/09 13:16:01;;;;;;;15.60;10.77;;;;;;;;;;4999553;28;20026;-88
2022/09/09 13:18:34;;;;;;;30.48;19.80;;;;;;;;;;4981670;28;20034;-91
2022/09/09 13:21:00;;;;;;;40.50;26.27;;;;;;;;;;4982582;28;20563;-90
2022/09/09 13:23:29;;;;;;;37.65;23.33;;;;;;;;;;4969663;28;20120;-90
2022/09/09 13:25:59;;;;;;;34.58;22.42;;;;;;;;;;5000158;28;20030;-90
2022/09/09 13:28:29;;;;;;;31.58;20.30;;;;;;;;;;5000553;28;20036;-91
2022/09/09 13:31:06;;;;;;;32.55;22.83;;;;;;;;;;4983136;28;20400;-91
2022/09/09 13:33:34;;;;;;;33.83;21.60;;;;;;;;;;4985816;28;20030;-92
2022/09/09 13:36:05;;;;;;;29.67;18.88;;;;;;;;;;4984264;28;20453;-91
2022/09/09 13:38:38;;;;;;;28.17;17.50;;;;;;;;;;4982129;28;20026;-91
2022/09/09 13:41:09;;;;;;;22.88;15.68;;;;;;;;;;4997390;28;20432;-91
2022/09/09 13:43:38;;;;;;;24.60;15.38;;;;;;;;;;4980896;28;20117;-90
2022/09/09 13:46:06;;;;;;;20.30;12.18;;;;;;;;;;4996991;28;20026;-91
2022/09/09 13:48:31;;;;;;;19.00;11.57;;;;;;;;;;4999424;28;20072;-91
2022/09/09 13:51:05;;;;;;;19.95;12.30;;;;;;;;;;4999776;28;20478;-91
2022/09/09 13:53:30;;;;;;;13.20;8.23;;;;;;;;;;5032795;28;20060;-89
2022/09/09 13:55:56;;;;;;;12.65;8.32;;;;;;;;;;5015549;28;20398;-90
2022/09/09 13:58:22;;;;;;;12.48;7.18;;;;;;;;;;4999523;28;20036;-91
2022/09/09 14:00:49;;;;;;;9.48;5.97;;;;;;;;;;4999615;28;20124;-90
2022/09/09 14:03:15;;;;;;;9.27;5.25;;;;;;;;;;4998740;28;20033;-90
2022/09/09 14:05:42;;;;;;;11.90;5.20;;;;;;;;;;5032604;28;20056;-90
2022/09/09 14:08:07;;;;;;;6.72;3.72;;;;;;;;;;4999863;28;20043;-91
2022/09/09 14:10:35;;;;;;;6.78;3.35;;;;;;;;;;5006143;28;20113;-91
2022/09/09 14:13:01;;;;;;;5.88;3.30;;;;;;;;;;4965205;28;20026;-91
2022/09/09 14:15:26;;;;;;;6.28;2.85;;;;;;;;;;4964513;28;20084;-91
2022/09/09 14:17:52;;;;;;;6.47;2.65;;;;;;;;;;4948286;28;20442;-90
2022/09/09 14:20:19;;;;;;;6.85;3.17;;;;;;;;;;4964456;28;20034;-91
2022/09/09 14:22:44;;;;;;;4.72;1.60;;;;;;;;;;4981291;28;20412;-91
2022/09/09 14:25:11;;;;;;;4.10;1.98;;;;;;;;;;4981420;28;20063;-91
2022/09/09 14:27:38;;;;;;;3.20;1.42;;;;;;;;;;4981570;28;20026;-91
2022/09/09 14:30:04;;;;;;;4.78;1.52;;;;;;;;;;4965277;28;20037;-91
2022/09/09 14:32:29;;;;;;;2.92;0.93;;;;;;;;;;4964153;28;20026;-91
2022/09/09 14:34:55;;;;;;;2.58;1.10;;;;;;;;;;4964384;28;20056;-91
2022/09/09 14:37:20;;;;;;;3.35;1.13;;;;;;;;;;4996925;28;20068;-92
2022/09/09 14:39:47;;;;;;;2.47;0.90;;;;;;;;;;4964348;28;20559;-91
2022/09/09 14:42:13;;;;;;;3.63;0.80;;;;;;;;;;4979931;28;20038;-91
2022/09/09 14:44:38;;;;;;;3.38;0.85;;;;;;;;;;4980389;28;20018;-90
2022/09/09 14:47:10;;;;;;;3.50;0.70;;;;;;;;;;4971220;28;20030;-90
2022/09/09 14:49:37;;;;;;;2.45;0.57;;;;;;;;;;4999886;28;20032;-91
2022/09/09 14:52:03;;;;;;;2.30;0.47;;;;;;;;;;5015981;28;20033;-91
2022/09/09 14:54:29;;;;;;;2.28;0.65;;;;;;;;;;4999396;28;20060;-91
2022/09/09 14:56:54;;;;;;;1.65;0.50;;;;;;;;;;4999231;28;20492;-91
2022/09/09 14:59:19;;;;;;;2.97;0.80;;;;;;;;;;4999259;28;20176;-91
2022/09/09 15:01:46;;;;;;;3.25;1.45;;;;;;;;;;4998795;28;20037;-91
2022/09/09 15:04:14;;;;;;;4.30;0.50;;;;;;;;;;4994895;28;20053;-91
2022/09/09 15:06:46;;;;;;;2.90;0.35;;;;;;;;;;4996707;28;20539;-92
2022/09/09 15:09:18;;;;;;;4.30;0.98;;;;;;;;;;4998742;28;20038;-92
2022/09/09 15:11:44;;;;;;;4.18;1.23;;;;;;;;;;4963413;28;20034;-93
2022/09/09 15:14:18;;;;;;;2.85;0.93;;;;;;;;;;4964224;28;20401;-93
2022/09/09 15:16:46;;;;;;;3.08;0.75;;;;;;;;;;4980400;28;20095;-92
2022/09/09 15:19:11;;;;;;;1.42;0.50;;;;;;;;;;4980294;28;20489;-90
2022/09/09 15:21:38;;;;;;;4.78;0.80;;;;;;;;;;4965089;28;20045;-89
2022/09/09 15:24:08;;;;;;;4.85;1.38;;;;;;;;;;4979469;28;20404;-91
2022/09/09 15:26:34;;;;;;;7.45;3.50;;;;;;;;;;4996381;28;20042;-91
2022/09/09 15:29:02;;;;;;;9.80;5.70;;;;;;;;;;4963429;28;20030;-90
2022/09/09 15:31:33;;;;;;;9.93;6.25;;;;;;;;;;4964421;28;20398;-90
2022/09/09 15:34:01;;;;;;;11.57;6.90;;;;;;;;;;4963997;28;20416;-90